Lafayette Regional Airport
KLFT : now visible

Airfield :











YOU CAN JOIN US ON...

 
LOGIN :

Register | Disclaimer

   EN    FR    IT 

 









Legend :    VFR   Marginal VFR   IFR   Intensive IFR   Very Intensive IFR
Visi :
Ceiling :
>= 8 km
>= 3000ft
5 to 8 km
1000 to 3000 ft
1500m to 5 km
500 to 1000 ft
800 to 1500m
200 to 500 ft
< 800m
< 200 ft
Symbols :   Thunderstorms  Fog  Heavy snow  Heavy precipitations  Wind > 20 kt






- Airport Elevation : 42 ft
- IATA code : LFT


KLFT - Lafayette Regional

CURRENT METAR :
  • 071553Z 00000KT 10SM CLR 28/13 A3020 RMK AO2 SLP226 T02830128

EXPIRED METARs :
  • 071453Z 32003KT 10SM CLR 26/16 A3021 RMK AO2 SLP229 T02560156 51015
  • 071353Z 00000KT 10SM CLR 21/16 A3020 RMK AO2 SLP226 T02110161

TAF KLFT
Valid from the 07 at 12:00 until the 08 at 12:00 UTC


071128Z 0712/0812 00000KT P6SM SKC
FM071700 02005KT P6SM SCT250
FM080200 00000KT P6SM SCT250
FM080800 VRB02KT P6SM BKN250
KZHU FIR / North America



MET'MAP, your aeronautical weather chart ! - Copyright ORBIFLY December 2007 - Disclaimer

ORBIFLY MET'MAP TEAM :

Programming & Development : Alexandra Zaïnal
Original concept : Baudouin d'Aumeries
Technical & hardware support : Manuel Goepfert
Assistance : Marc-Olivier Méhu




SOURCES & CREDITS :

   NOAA       Earth
Advisory